Time;durP1;ratioP1;P1;durP2;ratioP2;P2;SDS_P1;SDS_P2;PMS_P1;PMS_P2;Temp;Humidity;BMP_temperature;BMP_pressure;BME280_temperature;BME280_humidity;BME280_pressure;Samples;Min_cycle;Max_cycle;Signal;HPM_P1;HPM_P2
2022/10/04 00:02:04;;;;;;;;;;;;;;;;;;10414190;28;19925;-59
2022/10/04 00:07:07;;;;;;;;;;;;;;;;;;10416133;28;20015;-59
2022/10/04 00:12:09;;;;;;;;;;;;;;;;;;10412969;28;19929;-59
2022/10/04 00:17:11;;;;;;;;;;;;;;;;;;10410888;28;19925;-59
2022/10/04 00:22:13;;;;;;;;;;;;;;;;;;10411770;28;19928;-59
2022/10/04 00:27:15;;;;;;;;;;;;;;;;;;10412265;28;19974;-59
2022/10/04 00:32:17;;;;;;;;;;;;;;;;;;10412725;28;19970;-59
2022/10/04 00:37:19;;;;;;;;;;;;;;;;;;10413427;28;19982;-59
2022/10/04 00:42:21;;;;;;;;;;;;;;;;;;10407822;28;19925;-59
2022/10/04 00:47:23;;;;;;;;;;;;;;;;;;10410212;28;19975;-59
2022/10/04 00:52:25;;;;;;;;;;;;;;;;;;10412077;28;19925;-59
2022/10/04 00:57:27;;;;;;;;;;;;;;;;;;10410246;28;19929;-59
2022/10/04 01:02:29;;;;;;;;;;;;;;;;;;10411569;28;19933;-59
2022/10/04 01:07:31;;;;;;;;;;;;;;;;;;10407640;28;19933;-59
2022/10/04 01:12:33;;;;;;;;;;;;;;;;;;10414786;28;19929;-59
2022/10/04 01:17:35;;;;;;;;;;;;;;;;;;10410888;28;20327;-59
2022/10/04 01:22:37;;;;;;;;;;;;;;;;;;10410327;28;19979;-59
2022/10/04 01:27:39;;;;;;;;;;;;;;;;;;10409799;28;19936;-59
2022/10/04 01:32:41;;;;;;;;;;;;;;;;;;10412230;28;19929;-59
2022/10/04 01:37:46;;;;;;;;;;;;;;;;;;10407966;28;19932;-59
2022/10/04 01:42:48;;;;;;;;;;;;;;;;;;10409365;28;19929;-59
2022/10/04 01:47:50;;;;;;;;;;;;;;;;;;10406092;28;19999;-59
2022/10/04 01:52:52;;;;;;;;;;;;;;;;;;10409987;28;19929;-59
2022/10/04 01:57:54;;;;;;;;;;;;;;;;;;10412855;28;19925;-59
2022/10/04 02:02:56;;;;;;;;;;;;;;;;;;10410467;28;19925;-59
2022/10/04 02:07:59;;;;;;;;;;;;;;;;;;10414543;28;20343;-59
2022/10/04 02:13:01;;;;;;;;;;;;;;;;;;10417748;28;20438;-59
2022/10/04 02:18:04;;;;;;;;;;;;;;;;;;10419801;28;19925;-59
2022/10/04 02:23:06;;;;;;;;;;;;;;;;;;10416327;28;19955;-59
2022/10/04 02:28:09;;;;;;;;;;;;;;;;;;10414047;28;20389;-59
2022/10/04 02:33:11;;;;;;;;;;;;;;;;;;10412263;28;19925;-59
2022/10/04 02:38:14;;;;;;;;;;;;;;;;;;10417772;28;20327;-59
2022/10/04 02:43:16;;;;;;;;;;;;;;;;;;10415730;28;19937;-59
2022/10/04 02:48:18;;;;;;;;;;;;;;;;;;10418790;28;19925;-59
2022/10/04 02:53:20;;;;;;;;;;;;;;;;;;10417638;28;19928;-59
2022/10/04 02:58:22;;;;;;;;;;;;;;;;;;10416091;28;19971;-59
2022/10/04 03:03:24;;;;;;;;;;;;;;;;;;10417546;28;19952;-59
2022/10/04 03:08:26;;;;;;;;;;;;;;;;;;10417018;28;19952;-58
2022/10/04 03:13:28;;;;;;;;;;;;;;;;;;10413664;28;20323;-58
2022/10/04 03:18:30;;;;;;;;;;;;;;;;;;10416472;28;19929;-59
2022/10/04 03:23:32;;;;;;;;;;;;;;;;;;10416942;28;19936;-59
2022/10/04 03:28:34;;;;;;;;;;;;;;;;;;10415030;28;19929;-59
2022/10/04 03:33:36;;;;;;;;;;;;;;;;;;10415349;28;19925;-59
2022/10/04 03:38:39;;;;;;;;;;;;;;;;;;10414199;28;19972;-58
2022/10/04 03:43:42;;;;;;;;;;;;;;;;;;10412096;28;19971;-58
2022/10/04 03:48:44;;;;;;;;;;;;;;;;;;10413987;28;19976;-59
2022/10/04 03:53:46;;;;;;;;;;;;;;;;;;10413747;28;20384;-59
2022/10/04 03:58:48;;;;;;;;;;;;;;;;;;10414933;28;19925;-58
2022/10/04 04:03:50;;;;;;;;;;;;;;;;;;10415439;28;19960;-58
2022/10/04 04:08:53;;;;;;;;;;;;;;;;;;10411914;28;19980;-58
2022/10/04 04:13:55;;;;;;;;;;;;;;;;;;10409049;28;20327;-58
2022/10/04 04:18:57;;;;;;;;;;;;;;;;;;10407850;28;19960;-58
2022/10/04 04:24:00;;;;;;;;;;;;;;;;;;10409672;28;19971;-58
2022/10/04 04:29:02;;;;;;;;;;;;;;;;;;10410548;28;19929;-58
2022/10/04 04:34:05;;;;;;;;;;;;;;;;;;10411069;28;19976;-58
2022/10/04 04:44:28;;;;;;;;;;;;;;;;;;10412075;28;19947;-59
2022/10/04 04:49:30;;;;;;;;;;;;;;;;;;10404151;28;20419;-58
2022/10/04 04:54:33;;;;;;;;;;;;;;;;;;10408807;28;19986;-58
2022/10/04 04:59:36;;;;;;;;;;;;;;;;;;10410196;28;19925;-58
2022/10/04 05:04:38;;;;;;;;;;;;;;;;;;10413720;28;19925;-58
2022/10/04 05:09:40;;;;;;;;;;;;;;;;;;10405778;28;19968;-58
2022/10/04 05:14:42;;;;;;;;;;;;;;;;;;10413869;28;19971;-58
2022/10/04 05:19:45;;;;;;;;;;;;;;;;;;10409880;28;20347;-58
2022/10/04 05:24:47;;;;;;;;;;;;;;;;;;10408296;28;20376;-58
2022/10/04 05:29:49;;;;;;;;;;;;;;;;;;10410096;28;19951;-59
2022/10/04 05:34:53;;;;;;;;;;;;;;;;;;10406356;28;20417;-58
2022/10/04 05:39:55;;;;;;;;;;;;;;;;;;10405984;28;19940;-58
2022/10/04 05:44:57;;;;;;;;;;;;;;;;;;10409694;28;19975;-58
2022/10/04 05:49:59;;;;;;;;;;;;;;;;;;10408520;28;20331;-58
2022/10/04 05:55:01;;;;;;;;;;;;;;;;;;10409168;28;19969;-58
2022/10/04 06:00:06;;;;;;;;;;;;;;;;;;10419549;22;20376;-59
2022/10/04 06:05:09;;;;;;;;;;;;;;;;;;10447523;28;19963;-58
2022/10/04 06:10:11;;;;;;;;;;;;;;;;;;10450045;28;19925;-58
2022/10/04 06:15:13;;;;;;;;;;;;;;;;;;10449298;28;19925;-58
2022/10/04 06:20:15;;;;;;;;;;;;;;;;;;10452951;28;19974;-58
2022/10/04 06:25:17;;;;;;;;;;;;;;;;;;10449565;28;19975;-58
2022/10/04 06:30:19;;;;;;;;;;;;;;;;;;10446565;28;19964;-58
2022/10/04 06:35:21;;;;;;;;;;;;;;;;;;10453344;28;20064;-58
2022/10/04 06:40:25;;;;;;;;;;;;;;;;;;10455559;28;20391;-58
2022/10/04 06:45:30;;;;;;;;;;;;;;;;;;10454302;28;19932;-58
2022/10/04 06:50:32;;;;;;;;;;;;;;;;;;10453527;28;20429;-58
2022/10/04 06:55:34;;;;;;;;;;;;;;;;;;10459034;28;19925;-58
2022/10/04 07:00:36;;;;;;;;;;;;;;;;;;10460372;28;19925;-59
2022/10/04 07:05:38;;;;;;;;;;;;;;;;;;10462387;28;19928;-59
2022/10/04 07:10:40;;;;;;;;;;;;;;;;;;10462332;28;20417;-59
2022/10/04 07:15:43;;;;;;;;;;;;;;;;;;10461795;28;19978;-58
2022/10/04 07:20:47;;;;;;;;;;;;;;;;;;10450035;28;19947;-59
2022/10/04 07:25:49;;;;;;;;;;;;;;;;;;10443408;28;20334;-58
2022/10/04 07:30:52;;;;;;;;;;;;;;;;;;10460517;28;20441;-61
2022/10/04 07:35:54;;;;;;;;;;;;;;;;;;10460180;28;19925;-61
2022/10/04 07:40:56;;;;;;;;;;;;;;;;;;10457172;28;19931;-61
2022/10/04 07:46:00;;;;;;;;;;;;;;;;;;10458627;28;19925;-61
2022/10/04 07:51:02;;;;;;;;;;;;;;;;;;10457408;28;19951;-61
2022/10/04 07:56:05;;;;;;;;;;;;;;;;;;10460661;28;19968;-61
2022/10/04 08:01:07;;;;;;;;;;;;;;;;;;10460707;28;19924;-61
2022/10/04 08:06:10;;;;;;;;;;;;;;;;;;10460205;28;19995;-61
2022/10/04 08:11:12;;;;;;;;;;;;;;;;;;10460077;28;20395;-61
2022/10/04 08:16:14;;;;;;;;;;;;;;;;;;10460490;28;19932;-61
2022/10/04 08:21:16;;;;;;;;;;;;;;;;;;10460482;28;20012;-61
2022/10/04 08:26:18;;;;;;;;;;;;;;;;;;10459969;28;19933;-61
2022/10/04 08:31:20;;;;;;;;;;;;;;;;;;10459177;28;20331;-61
2022/10/04 08:36:23;;;;;;;;;;;;;;;;;;10459708;28;19936;-61
2022/10/04 08:41:25;;;;;;;;;;;;;;;;;;10459472;28;19925;-61
2022/10/04 08:46:27;;;;;;;;;;;;;;;;;;10459185;28;19929;-62
2022/10/04 08:51:29;;;;;;;;;;;;;;;;;;10459117;28;19960;-62
2022/10/04 08:56:31;;;;;;;;;;;;;;;;;;10458277;28;20425;-62
2022/10/04 09:01:33;;;;;;;;;;;;;;;;;;10458357;28;19929;-62
2022/10/04 09:06:35;;;;;;;;;;;;;;;;;;10458449;28;19964;-62
2022/10/04 09:11:39;;;;;;;;;;;;;;;;;;10458292;28;19925;-62
2022/10/04 09:16:41;;;;;;;;;;;;;;;;;;10457791;28;19971;-62
2022/10/04 09:21:43;;;;;;;;;;;;;;;;;;10457999;28;19929;-62
2022/10/04 09:26:45;;;;;;;;;;;;;;;;;;10457781;28;19970;-62
2022/10/04 09:31:48;;;;;;;;;;;;;;;;;;10457069;28;20284;-62
2022/10/04 09:36:51;;;;;;;;;;;;;;;;;;10457596;28;19925;-62
2022/10/04 09:41:53;;;;;;;;;;;;;;;;;;10456853;28;20395;-62
2022/10/04 09:46:56;;;;;;;;;;;;;;;;;;10457333;28;19925;-62
2022/10/04 09:52:00;;;;;;;;;;;;;;;;;;10456649;28;20449;-62
2022/10/04 09:57:02;;;;;;;;;;;;;;;;;;10457255;28;19929;-63
2022/10/04 10:02:04;;;;;;;;;;;;;;;;;;10456895;28;19925;-65
2022/10/04 10:07:06;;;;;;;;;;;;;;;;;;10456929;28;19925;-59
2022/10/04 10:17:35;;;;;;;;;;;;;;;;;;10456805;28;19925;-59
2022/10/04 10:22:37;;;;;;;;;;;;;;;;;;10455274;28;19925;-59
2022/10/04 10:27:39;;;;;;;;;;;;;;;;;;10459228;28;19971;-58
2022/10/04 10:32:41;;;;;;;;;;;;;;;;;;10463881;28;19924;-58
2022/10/04 10:37:43;;;;;;;;;;;;;;;;;;10461719;28;20391;-59
2022/10/04 10:42:45;;;;;;;;;;;;;;;;;;10460879;28;19960;-59
2022/10/04 10:47:47;;;;;;;;;;;;;;;;;;10461689;28;19964;-59
2022/10/04 10:52:51;;;;;;;;;;;;;;;;;;10461891;28;19979;-58
2022/10/04 10:57:53;;;;;;;;;;;;;;;;;;10462742;28;19928;-59
2022/10/04 11:02:55;;;;;;;;;;;;;;;;;;10461494;28;20356;-59
2022/10/04 11:08:12;;;;;;;;;;;;;;;;;;10463070;28;20027;-59
2022/10/04 11:13:16;;;;;;;;;;;;;;;;;;10462269;28;20376;-59
2022/10/04 11:18:18;;;;;;;;;;;;;;;;;;10462758;28;19932;-59
2022/10/04 11:23:20;;;;;;;;;;;;;;;;;;10462530;28;19924;-59
2022/10/04 11:28:23;;;;;;;;;;;;;;;;;;10461644;28;20380;-59
2022/10/04 11:33:25;;;;;;;;;;;;;;;;;;10462189;28;20015;-59
2022/10/04 11:38:27;;;;;;;;;;;;;;;;;;10461037;28;20413;-59
2022/10/04 11:43:30;;;;;;;;;;;;;;;;;;10461160;28;20268;-60
2022/10/04 11:48:34;;;;;;;;;;;;;;;;;;10460922;28;19925;-60
2022/10/04 11:53:36;;;;;;;;;;;;;;;;;;10461485;28;19929;-60
2022/10/04 11:58:38;;;;;;;;;;;;;;;;;;10460593;28;20334;-60
2022/10/04 12:03:40;;;;;;;;;;;;;;;;;;10460399;28;19978;-60
2022/10/04 12:08:42;;;;;;;;;;;;;;;;;;10460119;28;19925;-60
2022/10/04 12:13:44;;;;;;;;;;;;;;;;;;10460606;28;19925;-60
2022/10/04 12:18:46;;;;;;;;;;;;;;;;;;10459775;28;20368;-59
2022/10/04 12:23:48;;;;;;;;;;;;;;;;;;10460200;28;19925;-59
2022/10/04 12:28:50;;;;;;;;;;;;;;;;;;10459342;28;19925;-59
2022/10/04 12:33:55;;;;;;;;;;;;;;;;;;10459836;28;19932;-59
2022/10/04 12:38:57;;;;;;;;;;;;;;;;;;10458986;28;19925;-59
2022/10/04 12:43:59;;;;;;;;;;;;;;;;;;10459349;28;19924;-59
2022/10/04 12:49:02;;;;;;;;;;;;;;;;;;10458639;28;19925;-59
2022/10/04 12:54:04;;;;;;;;;;;;;;;;;;10459006;28;19925;-59
2022/10/04 12:59:07;;;;;;;;;;;;;;;;;;10458790;28;19925;-60
2022/10/04 13:04:09;;;;;;;;;;;;;;;;;;10457824;28;19924;-60
2022/10/04 13:09:11;;;;;;;;;;;;;;;;;;10458053;28;19925;-60
2022/10/04 13:14:13;;;;;;;;;;;;;;;;;;10457672;28;19982;-59
2022/10/04 13:19:15;;;;;;;;;;;;;;;;;;10458144;28;19925;-59
2022/10/04 13:24:17;;;;;;;;;;;;;;;;;;10457314;28;19925;-59
2022/10/04 13:29:19;;;;;;;;;;;;;;;;;;10457979;28;19925;-59
2022/10/04 13:34:21;;;;;;;;;;;;;;;;;;10457746;28;19929;-59
2022/10/04 13:39:23;;;;;;;;;;;;;;;;;;10457034;28;20391;-59
2022/10/04 13:44:26;;;;;;;;;;;;;;;;;;10457460;28;19928;-59
2022/10/04 13:49:28;;;;;;;;;;;;;;;;;;10457245;28;19925;-59
2022/10/04 13:59:51;;;;;;;;;;;;;;;;;;10456501;28;20379;-59
2022/10/04 14:04:55;;;;;;;;;;;;;;;;;;10464688;28;19928;-59
2022/10/04 14:09:58;;;;;;;;;;;;;;;;;;10464919;28;19978;-59
2022/10/04 14:15:02;;;;;;;;;;;;;;;;;;10465279;28;19929;-59
2022/10/04 14:20:05;;;;;;;;;;;;;;;;;;10463888;28;19971;-58
2022/10/04 14:25:07;;;;;;;;;;;;;;;;;;10465162;28;19925;-59
2022/10/04 14:30:09;;;;;;;;;;;;;;;;;;10464554;28;19979;-59
2022/10/04 14:35:11;;;;;;;;;;;;;;;;;;10463840;28;20442;-58
2022/10/04 14:40:13;;;;;;;;;;;;;;;;;;10464292;28;19924;-58
2022/10/04 14:45:15;;;;;;;;;;;;;;;;;;10464079;28;19925;-58
2022/10/04 14:50:18;;;;;;;;;;;;;;;;;;10463156;28;20368;-59
2022/10/04 14:55:21;;;;;;;;;;;;;;;;;;10463075;28;19970;-59
2022/10/04 15:00:28;;;;;;;;;;;;;;;;;;10462671;28;20380;-59
2022/10/04 15:05:31;;;;;;;;;;;;;;;;;;10462855;28;19924;-59
2022/10/04 15:10:33;;;;;;;;;;;;;;;;;;10463050;28;19925;-58
2022/10/04 15:15:39;;;;;;;;;;;;;;;;;;10462223;28;19925;-59
2022/10/04 15:20:41;;;;;;;;;;;;;;;;;;10462788;28;19931;-58
2022/10/04 15:25:44;;;;;;;;;;;;;;;;;;10460061;28;19928;-58
2022/10/04 15:30:46;;;;;;;;;;;;;;;;;;10453400;28;20375;-58
2022/10/04 15:35:48;;;;;;;;;;;;;;;;;;10456042;28;20402;-58
2022/10/04 15:40:50;;;;;;;;;;;;;;;;;;10459104;28;19979;-58
2022/10/04 15:45:52;;;;;;;;;;;;;;;;;;10459068;28;20376;-58
2022/10/04 15:50:55;;;;;;;;;;;;;;;;;;10460547;28;19970;-58
2022/10/04 15:55:57;;;;;;;;;;;;;;;;;;10458670;28;20035;-58
2022/10/04 16:00:59;;;;;;;;;;;;;;;;;;10459590;28;19955;-58
2022/10/04 16:06:01;;;;;;;;;;;;;;;;;;10457907;28;19967;-58
2022/10/04 16:11:03;;;;;;;;;;;;;;;;;;10459691;28;19929;-58
2022/10/04 16:16:05;;;;;;;;;;;;;;;;;;10458540;28;19928;-58
2022/10/04 16:21:11;;;;;;;;;;;;;;;;;;10460299;28;19925;-58
2022/10/04 16:26:14;;;;;;;;;;;;;;;;;;10457218;28;19929;-58
2022/10/04 16:31:17;;;;;;;;;;;;;;;;;;10459861;28;19925;-58
2022/10/04 16:36:21;;;;;;;;;;;;;;;;;;10458929;28;19978;-57
2022/10/04 16:47:10;;;;;;;;;;;;;;;;;;10528155;28;19916;-57
2022/10/04 16:52:12;;;;;;;;;;;;;;;;;;10541765;28;19993;-57
2022/10/04 16:57:14;;;;;;;;;;;;;;;;;;10541497;28;19969;-58
2022/10/04 17:02:16;;;;;;;;;;;;;;;;;;10541090;28;20440;-58
2022/10/04 17:07:18;;;;;;;;;;;;;;;;;;10541882;28;19977;-57
2022/10/04 17:12:20;;;;;;;;;;;;;;;;;;10523755;28;19973;-58
2022/10/04 17:17:23;;;;;;;;;;;;;;;;;;10541564;28;19978;-58
2022/10/04 17:22:25;;;;;;;;;;;;;;;;;;10541331;28;19924;-58
2022/10/04 17:27:27;;;;;;;;;;;;;;;;;;10540506;28;19993;-58
2022/10/04 17:32:29;;;;;;;;;;;;;;;;;;10541083;28;19924;-58
2022/10/04 17:37:31;;;;;;;;;;;;;;;;;;10539896;28;19924;-58
2022/10/04 17:42:34;;;;;;;;;;;;;;;;;;10540805;28;19928;-58
2022/10/04 17:58:19;;;;;;;;;;;;;;;;;;10539655;28;20256;-58
2022/10/04 18:03:21;;;;;;;;;;;;;;;;;;10540083;28;20371;-57
2022/10/04 18:08:23;;;;;;;;;;;;;;;;;;10539295;28;19979;-57
2022/10/04 18:13:25;;;;;;;;;;;;;;;;;;10539456;28;19989;-57
2022/10/04 18:18:27;;;;;;;;;;;;;;;;;;10518558;22;20386;-59
2022/10/04 18:23:30;;;;;;;;;;;;;;;;;;10498218;28;19978;-59
2022/10/04 18:28:33;;;;;;;;;;;;;;;;;;10497275;28;20381;-58
2022/10/04 18:33:36;;;;;;;;;;;;;;;;;;10497355;28;20383;-59
2022/10/04 18:38:38;;;;;;;;;;;;;;;;;;10497837;28;19925;-58
2022/10/04 18:43:41;;;;;;;;;;;;;;;;;;10497201;28;20326;-59
2022/10/04 18:48:43;;;;;;;;;;;;;;;;;;10500178;28;19928;-58
2022/10/04 18:53:45;;;;;;;;;;;;;;;;;;10505221;28;19933;-59
2022/10/04 19:04:08;;;;;;;;;;;;;;;;;;10504789;28;19978;-58
2022/10/04 19:09:10;;;;;;;;;;;;;;;;;;10504749;28;19974;-58
2022/10/04 19:14:13;;;;;;;;;;;;;;;;;;10504488;28;19925;-58
2022/10/04 19:19:15;;;;;;;;;;;;;;;;;;10503668;28;19928;-58
2022/10/04 19:24:17;;;;;;;;;;;;;;;;;;10504127;28;19977;-58
2022/10/04 19:29:19;;;;;;;;;;;;;;;;;;10503235;28;20375;-58
2022/10/04 19:34:21;;;;;;;;;;;;;;;;;;10503751;28;19978;-59
2022/10/04 19:39:23;;;;;;;;;;;;;;;;;;10503491;28;19970;-58
2022/10/04 19:44:25;;;;;;;;;;;;;;;;;;10503674;28;19982;-58
2022/10/04 19:49:27;;;;;;;;;;;;;;;;;;10502416;28;20424;-59
2022/10/04 19:54:30;;;;;;;;;;;;;;;;;;10502284;28;20287;-58
2022/10/04 19:59:33;;;;;;;;;;;;;;;;;;10502113;28;19974;-58
2022/10/04 20:04:37;;;;;;;;;;;;;;;;;;10502508;28;19978;-58
2022/10/04 20:09:41;;;;;;;;;;;;;;;;;;10501588;28;19947;-58
2022/10/04 20:14:45;;;;;;;;;;;;;;;;;;10501566;28;19924;-59
2022/10/04 20:19:47;;;;;;;;;;;;;;;;;;10501096;28;19971;-58
2022/10/04 20:24:49;;;;;;;;;;;;;;;;;;10501701;28;19924;-58
2022/10/04 20:29:51;;;;;;;;;;;;;;;;;;10500710;28;19947;-59
2022/10/04 20:34:54;;;;;;;;;;;;;;;;;;10500654;28;20256;-59
2022/10/04 20:39:56;;;;;;;;;;;;;;;;;;10501034;28;19955;-58
2022/10/04 20:44:58;;;;;;;;;;;;;;;;;;10500838;28;19924;-59
2022/10/04 20:50:00;;;;;;;;;;;;;;;;;;10500561;28;19925;-58
2022/10/04 20:55:05;;;;;;;;;;;;;;;;;;10500512;28;19931;-58
2022/10/04 21:00:07;;;;;;;;;;;;;;;;;;10500254;28;19924;-58
2022/10/04 21:05:09;;;;;;;;;;;;;;;;;;10500071;28;19972;-58
2022/10/04 21:10:11;;;;;;;;;;;;;;;;;;10499254;28;19925;-58
2022/10/04 21:15:13;;;;;;;;;;;;;;;;;;10499152;28;20371;-59
2022/10/04 21:20:15;;;;;;;;;;;;;;;;;;10498843;28;19943;-58
2022/10/04 21:25:17;;;;;;;;;;;;;;;;;;10498806;28;20279;-58
2022/10/04 21:30:19;;;;;;;;;;;;;;;;;;10499262;28;19925;-58
2022/10/04 21:35:21;;;;;;;;;;;;;;;;;;10498589;28;19928;-59
2022/10/04 21:40:23;;;;;;;;;;;;;;;;;;10499041;28;19924;-59
2022/10/04 21:45:25;;;;;;;;;;;;;;;;;;10498325;28;20346;-59
2022/10/04 21:50:28;;;;;;;;;;;;;;;;;;10498795;28;20005;-59
2022/10/04 21:55:30;;;;;;;;;;;;;;;;;;10497953;28;20264;-59
2022/10/04 22:00:33;;;;;;;;;;;;;;;;;;10498694;28;19924;-59
2022/10/04 22:05:35;;;;;;;;;;;;;;;;;;10497992;28;20337;-59
2022/10/04 22:10:38;;;;;;;;;;;;;;;;;;10498445;28;19982;-59
2022/10/04 22:15:41;;;;;;;;;;;;;;;;;;10498137;28;20011;-59
2022/10/04 22:20:43;;;;;;;;;;;;;;;;;;10479911;28;20287;-59
2022/10/04 22:25:45;;;;;;;;;;;;;;;;;;10505308;28;19993;-59
2022/10/04 22:30:48;;;;;;;;;;;;;;;;;;10506180;28;19924;-59
2022/10/04 22:35:50;;;;;;;;;;;;;;;;;;10505376;28;20326;-59
2022/10/04 22:40:52;;;;;;;;;;;;;;;;;;10505799;28;19977;-59
2022/10/04 22:45:54;;;;;;;;;;;;;;;;;;10505548;28;19924;-59
2022/10/04 22:50:56;;;;;;;;;;;;;;;;;;10504646;28;20291;-59
2022/10/04 22:55:59;;;;;;;;;;;;;;;;;;10505195;28;19924;-59
2022/10/04 23:01:01;;;;;;;;;;;;;;;;;;10504966;28;19925;-59
2022/10/04 23:06:03;;;;;;;;;;;;;;;;;;10504225;28;20006;-59
2022/10/04 23:11:05;;;;;;;;;;;;;;;;;;10504565;28;19928;-59
2022/10/04 23:16:07;;;;;;;;;;;;;;;;;;10504210;28;19924;-59
2022/10/04 23:21:09;;;;;;;;;;;;;;;;;;10504251;28;20020;-59
2022/10/04 23:26:11;;;;;;;;;;;;;;;;;;10504056;28;19966;-58
2022/10/04 23:31:13;;;;;;;;;;;;;;;;;;10503199;28;19978;-59
2022/10/04 23:36:16;;;;;;;;;;;;;;;;;;10503096;28;19963;-59
2022/10/04 23:41:18;;;;;;;;;;;;;;;;;;10503477;28;19925;-59
2022/10/04 23:46:20;;;;;;;;;;;;;;;;;;10503265;28;19970;-59
2022/10/04 23:51:22;;;;;;;;;;;;;;;;;;10503026;28;19928;-59
2022/10/04 23:56:24;;;;;;;;;;;;;;;;;;10502311;28;20330;-59
